WetterOnline ( https://www.wetteronline.de )

Wetter aktuell Duisburg

Aktuelles Wetter: Düsseldorf/Flughafen (41m)

6-stündlich | Neueste Meldungen
Ortszeit Temperatur Wetter
Do, 20.01. 1:00 4.1° C fast wolkenlos
Mi, 19.01. 19:00 4.3° C Sprühregen
Mi, 19.01. 13:00 4.3° C bedeckt
Mi, 19.01. 7:00 3.8° C bedeckt
Mi, 19.01. 1:00 0.0° C wolkenlos
Di, 18.01. 19:00 6.3° C bewölkt
Di, 18.01. 13:00 7.6° C bewölkt
Di, 18.01. 7:00 6.0° C bewölkt
Ortszeit Temperatur Wetter
Do, 20.01. 3:30 3.9° C bewölkt
Do, 20.01. 3:20 3.9° C bewölkt
Do, 20.01. 3:10 4.0° C bewölkt
Do, 20.01. 3:00 3.9° C bewölkt
Do, 20.01. 2:50 3.9° C bedeckt
Do, 20.01. 2:40 3.7° C bewölkt
Do, 20.01. 2:30 3.5° C wolkig
Do, 20.01. 2:00 3.7° C leicht bewölkt
Do, 20.01. 1:30 3.9° C wolkenlos
Do, 20.01. 1:00 4.1° C fast wolkenlos
Do, 20.01. 0:30 4.7° C wolkig
Ortszeit Relative Feuchte Sichtweite
Do, 20.01. 1:00 88% 20 km
Mi, 19.01. 19:00 93% 4.4 km
Mi, 19.01. 13:00 80% 25 km
Mi, 19.01. 7:00 87% 40 km
Mi, 19.01. 1:00 97% 35 km
Di, 18.01. 19:00 84% 20 km
Di, 18.01. 13:00 86% 10 km
Di, 18.01. 7:00 96% 9 km
Ortszeit Relative Feuchte Sichtweite
Do, 20.01. 3:30 87% 27 km
Do, 20.01. 3:20 87% -
Do, 20.01. 3:10 87% -
Do, 20.01. 3:00 87% 20 km
Do, 20.01. 2:50 87% -
Do, 20.01. 2:40 89% -
Do, 20.01. 2:30 89% 22 km
Do, 20.01. 2:00 89% 22 km
Do, 20.01. 1:30 89% 21 km
Do, 20.01. 1:00 88% 20 km
Do, 20.01. 0:30 89% 21 km
Ortszeit Niederschlagsmenge Niederschlagsart
Do, 20.01. 1:00 0.2 l/m2 in 6 Std. Regen
Mi, 19.01. 19:00 0.4 l/m2 in 12 Std. Regen
Mi, 19.01. 13:00 0.0 l/m2 in 6 Std. -
Mi, 19.01. 7:00 0.0 l/m2 in 12 Std. -
Mi, 19.01. 1:00 0.0 l/m2 in 6 Std. -
Di, 18.01. 19:00 0.0 l/m2 in 12 Std. -
Di, 18.01. 13:00 0.0 l/m2 in 6 Std. -
Di, 18.01. 7:00 0.1 l/m2 in 12 Std. Regen
Ortszeit Niederschlagsmenge Niederschlagsart
Do, 20.01. 3:30 0.0 l/m2 in 1 Std. -
Do, 20.01. 3:20 keine Meldung -
Do, 20.01. 3:10 keine Meldung -
Do, 20.01. 3:00 0.0 l/m2 in 1 Std. -
Do, 20.01. 2:50 keine Meldung -
Do, 20.01. 2:40 keine Meldung -
Do, 20.01. 2:30 0.0 l/m2 in 1 Std. -
Do, 20.01. 2:00 0.0 l/m2 in 1 Std. -
Do, 20.01. 1:30 0.0 l/m2 in 1 Std. -
Do, 20.01. 1:00 0.0 l/m2 in 1 Std. Regen
Do, 20.01. 0:30 0.0 l/m2 in 1 Std. -
Ortszeit Stärke Spitze Richtung
km/h Bft. km/h Grad Sektor
Do, 20.01. 1:00 11 2 32 290° W
Mi, 19.01. 19:00 18 3 32 240° SW
Mi, 19.01. 13:00 18 3 25 220° SW
Mi, 19.01. 7:00 17 3 30 200° S
Mi, 19.01. 1:00 7 2 19 80° O
Di, 18.01. 19:00 7 2 14 110° O
Di, 18.01. 13:00 4 1 11 320° NW
Di, 18.01. 7:00 7 2 18 300° NW
Ortszeit Stärke Spitze Richtung
km/h Bft. km/h Grad Sektor
Do, 20.01. 3:30 14 3 25 280° W
Do, 20.01. 3:20 14 3 - 280° W
Do, 20.01. 3:10 18 3 - 280° W
Do, 20.01. 3:00 15 3 22 270° W
Do, 20.01. 2:50 15 3 - 270° W
Do, 20.01. 2:40 14 3 - 260° W
Do, 20.01. 2:30 13 3 17 270° W
Do, 20.01. 2:00 13 3 20 280° W
Do, 20.01. 1:30 13 3 17 280° W
Do, 20.01. 1:00 11 2 22 290° W
Do, 20.01. 0:30 14 3 22 290° W
Ortszeit Untergrenze Bedeckung Gattung
total tief tief mittel hoch
Do, 20.01. 1:00 450 m 1/8 1/8 Cu - -
Mi, 19.01. 19:00 180 m 8/8 8/8 St - -
Mi, 19.01. 13:00 570 m 8/8 8/8 Cu - -
Mi, 19.01. 7:00 480 m 8/8 8/8 Sc - -
Mi, 19.01. 1:00 - 0/8 0/8 - - -
Di, 18.01. 19:00 690 m 7/8 7/8 Sc - -
Di, 18.01. 13:00 240 m 7/8 7/8 Cu - -
Di, 18.01. 7:00 450 m 7/8 7/8 Cu - -
Ortszeit Bedeckungsgrad in Achtel und Wolkenuntergrenze
Do, 20.01. 3:30 2(840m) 4(1020m) 7(2100m)
Do, 20.01. 3:20 2(840m) 4(1020m) 7(2100m)
Do, 20.01. 3:10 2(840m) 7(1290m) 7(2100m)
Do, 20.01. 3:00 1(450m) 7(1200m)
Do, 20.01. 2:50 7(1350m) 7(1500m) 8(2100m)
Do, 20.01. 2:40 5(1410m) 7(1500m) 7(2100m)
Do, 20.01. 2:30 6(1800m) 6(2100m)
Do, 20.01. 2:00 1(1800m) 7(1800m)
Do, 20.01. 1:30 keine Wolken
Do, 20.01. 1:00 1(450m)
Do, 20.01. 0:30 6(2100m)
Ortszeit Luftdruck NN (hPa) Tendenz (hPa in 3 Std.)
Do, 20.01. 1:00 1024 + 1,5
Mi, 19.01. 19:00 1021 - 0,6
Mi, 19.01. 13:00 1024 - 2,7
Mi, 19.01. 7:00 1028 - 2,1
Mi, 19.01. 1:00 1033 - 2,4
Di, 18.01. 19:00 1037 - 0,7
Di, 18.01. 13:00 1039 0,0
Di, 18.01. 7:00 1038 + 0,5
Ortszeit Luftdruck NN (hPa) Tendenz (hPa in 3 Std.)
Do, 20.01. 3:30 1024 + 0,7
Do, 20.01. 3:20 1024 keine Meldung
Do, 20.01. 3:10 1024 keine Meldung
Do, 20.01. 3:00 1024 + 0,9
Do, 20.01. 2:50 1024 keine Meldung
Do, 20.01. 2:40 1024 keine Meldung
Do, 20.01. 2:30 1024 + 1,1
Do, 20.01. 2:00 1024 + 1,3
Do, 20.01. 1:30 1024 + 1,3
Do, 20.01. 1:00 1024 + 1,5
Do, 20.01. 0:30 1024 + 1,7
Ortszeit Schneehöhe (cm)
Do, 20.01. 1:00 0
Mi, 19.01. 19:00 0
Mi, 19.01. 13:00 0
Mi, 19.01. 7:00 0
Mi, 19.01. 1:00 0
Di, 18.01. 19:00 0
Di, 18.01. 13:00 0
Di, 18.01. 7:00 0
Ortszeit Schneehöhe (cm)
Do, 20.01. 3:30 -
Do, 20.01. 3:20 -
Do, 20.01. 3:10 -
Do, 20.01. 3:00 -
Do, 20.01. 2:50 -
Do, 20.01. 2:40 -
Do, 20.01. 2:30 -
Do, 20.01. 2:00 -
Do, 20.01. 1:30 -
Do, 20.01. 1:00 0
Do, 20.01. 0:30 -
Link zu dieser Seite / Seite empfehlen

Das Wetter in ...